Ana Sayfa
METAR-TAF:

METAR-TAF

Havaalanları :

Hondo, Teksas, Amerika Birleşik Devletleri

Enlem: 29-21-34N, Boylam: 099-10-27W, yükseklik: 283 m

Güncel hava durumu gözlemi

Rapor saat 11:51 UTC de 32 dakika önce yapıldı.
Rüzgar kuzey/kuzeydoğudan 3 kt
Sıcaklık 23°C
Nem 89%
Basınç 1017 hPa
Görüş mesafesi: 16.1 km
800 ft yükseklikte parçalı çok bulutlu
1500 ft yükseklikte çok bulutlu

METAR: KHDO 261151Z AUTO 03003KT 10SM BKN008 OVC015 23/21 A3004 RMK AO2 LTG DSNT NE-S SLP156 T02280211 10228 20217 54000

Saat: 07:23 (12:23 UTC)


TAF: eksik

4.000'den fazla havaalanı için hava durumu gözlemleri ve tahminleri (METAR ve TAF raporları).

Kullanılabilir istasyonlar harita üzerinde sarı ve kırmızı noktalarla gösterilir.

İstasyonun adını görmek için fareyi noktanın üzerinde gezdirin.

Sonrasında hava gözlem ve tahminlerini görmek için tıklayın.

Haritayı değiştirmek için: yaklaştırmak için siyah artı işaretli yeşil düğmeye ve uzaklaştırmak için de eksi işaretli düğmeye hızla tıklayın; bitişik haritalar için yeşil okları kullanın.


METAR-TAF: